sensor_id;sensor_type;location;lat;lon;timestamp;pressure;altitude;pressure_sealevel;temperature;humidity
20710;BME280;10516;51.518;9.864;2023-04-24T00:01:28;97478.34;;;12.46;73.43
20710;BME280;10516;51.518;9.864;2023-04-24T00:03:54;97474.50;;;12.52;73.26
20710;BME280;10516;51.518;9.864;2023-04-24T00:06:19;97469.81;;;12.44;73.02
20710;BME280;10516;51.518;9.864;2023-04-24T00:08:45;97477.34;;;12.42;73.60
20710;BME280;10516;51.518;9.864;2023-04-24T00:11:10;97468.66;;;12.18;74.21
20710;BME280;10516;51.518;9.864;2023-04-24T00:13:36;97477.41;;;12.04;74.72
20710;BME280;10516;51.518;9.864;2023-04-24T00:16:02;97478.69;;;12.26;74.09
20710;BME280;10516;51.518;9.864;2023-04-24T00:18:27;97471.91;;;12.15;74.37
20710;BME280;10516;51.518;9.864;2023-04-24T00:20:52;97479.47;;;12.26;73.91
20710;BME280;10516;51.518;9.864;2023-04-24T00:23:17;97480.22;;;12.13;73.83
20710;BME280;10516;51.518;9.864;2023-04-24T00:25:43;97467.91;;;11.98;74.66
20710;BME280;10516;51.518;9.864;2023-04-24T00:28:09;97474.50;;;12.20;74.03
20710;BME280;10516;51.518;9.864;2023-04-24T00:30:34;97489.47;;;11.65;75.52
20710;BME280;10516;51.518;9.864;2023-04-24T00:33:00;97481.78;;;12.00;74.43
20710;BME280;10516;51.518;9.864;2023-04-24T00:35:25;97491.34;;;12.20;73.93
20710;BME280;10516;51.518;9.864;2023-04-24T00:37:50;97491.28;;;12.07;74.17
20710;BME280;10516;51.518;9.864;2023-04-24T00:40:15;97490.63;;;12.15;73.83
20710;BME280;10516;51.518;9.864;2023-04-24T00:42:41;97490.78;;;12.04;74.48
20710;BME280;10516;51.518;9.864;2023-04-24T00:45:06;97483.66;;;12.00;73.98
20710;BME280;10516;51.518;9.864;2023-04-24T00:47:32;97493.91;;;11.93;73.94
20710;BME280;10516;51.518;9.864;2023-04-24T00:49:58;97479.22;;;12.09;73.69
20710;BME280;10516;51.518;9.864;2023-04-24T00:52:23;97470.91;;;12.11;73.49
20710;BME280;10516;51.518;9.864;2023-04-24T00:54:49;97454.28;;;12.14;73.26
20710;BME280;10516;51.518;9.864;2023-04-24T00:57:14;97466.41;;;11.92;73.57
20710;BME280;10516;51.518;9.864;2023-04-24T00:59:40;97467.75;;;11.71;74.40
20710;BME280;10516;51.518;9.864;2023-04-24T01:02:06;97460.94;;;11.97;73.48
20710;BME280;10516;51.518;9.864;2023-04-24T01:04:32;97465.00;;;11.95;73.31
20710;BME280;10516;51.518;9.864;2023-04-24T01:06:58;97451.63;;;11.95;73.04
20710;BME280;10516;51.518;9.864;2023-04-24T01:09:23;97461.88;;;12.07;72.90
20710;BME280;10516;51.518;9.864;2023-04-24T01:11:49;97453.19;;;12.15;72.52
20710;BME280;10516;51.518;9.864;2023-04-24T01:14:14;97450.31;;;12.11;72.36
20710;BME280;10516;51.518;9.864;2023-04-24T01:16:39;97453.69;;;12.17;72.29
20710;BME280;10516;51.518;9.864;2023-04-24T01:19:06;97456.16;;;12.13;71.88
20710;BME280;10516;51.518;9.864;2023-04-24T01:21:32;97447.94;;;12.10;72.54
20710;BME280;10516;51.518;9.864;2023-04-24T01:23:58;97443.16;;;12.07;72.25
20710;BME280;10516;51.518;9.864;2023-04-24T01:26:23;97446.03;;;12.10;72.37
20710;BME280;10516;51.518;9.864;2023-04-24T01:28:50;97439.97;;;12.04;72.57
20710;BME280;10516;51.518;9.864;2023-04-24T01:31:15;97431.78;;;11.82;72.95
20710;BME280;10516;51.518;9.864;2023-04-24T01:33:41;97441.44;;;11.97;72.69
20710;BME280;10516;51.518;9.864;2023-04-24T01:36:07;97447.94;;;11.91;72.36
20710;BME280;10516;51.518;9.864;2023-04-24T01:38:33;97443.19;;;11.88;72.26
20710;BME280;10516;51.518;9.864;2023-04-24T01:40:58;97438.63;;;11.88;72.66
20710;BME280;10516;51.518;9.864;2023-04-24T01:43:23;97437.72;;;11.79;72.56
20710;BME280;10516;51.518;9.864;2023-04-24T01:45:49;97442.41;;;11.87;72.36
20710;BME280;10516;51.518;9.864;2023-04-24T01:48:14;97429.91;;;11.83;72.74
20710;BME280;10516;51.518;9.864;2023-04-24T01:50:40;97429.34;;;11.86;72.56
20710;BME280;10516;51.518;9.864;2023-04-24T01:53:05;97434.00;;;11.75;72.94
20710;BME280;10516;51.518;9.864;2023-04-24T01:55:30;97436.91;;;11.79;72.89
20710;BME280;10516;51.518;9.864;2023-04-24T01:57:56;97437.13;;;11.82;72.84
20710;BME280;10516;51.518;9.864;2023-04-24T02:00:22;97426.84;;;11.71;73.10
20710;BME280;10516;51.518;9.864;2023-04-24T02:02:49;97427.78;;;11.80;72.55
20710;BME280;10516;51.518;9.864;2023-04-24T02:05:14;97427.38;;;11.73;72.58
20710;BME280;10516;51.518;9.864;2023-04-24T02:07:40;97429.16;;;11.77;72.85
20710;BME280;10516;51.518;9.864;2023-04-24T02:10:05;97425.56;;;11.87;72.27
20710;BME280;10516;51.518;9.864;2023-04-24T02:12:31;97426.41;;;11.64;73.15
20710;BME280;10516;51.518;9.864;2023-04-24T02:14:56;97415.59;;;11.55;72.93
20710;BME280;10516;51.518;9.864;2023-04-24T02:17:21;97415.41;;;11.70;72.49
20710;BME280;10516;51.518;9.864;2023-04-24T02:19:46;97413.78;;;11.69;72.79
20710;BME280;10516;51.518;9.864;2023-04-24T02:22:12;97409.56;;;11.68;72.58
20710;BME280;10516;51.518;9.864;2023-04-24T02:24:37;97417.03;;;11.66;72.74
20710;BME280;10516;51.518;9.864;2023-04-24T02:27:02;97409.88;;;11.62;72.67
20710;BME280;10516;51.518;9.864;2023-04-24T02:29:28;97410.31;;;11.69;72.63
20710;BME280;10516;51.518;9.864;2023-04-24T02:31:53;97405.78;;;11.69;72.78
20710;BME280;10516;51.518;9.864;2023-04-24T02:34:18;97413.72;;;11.74;72.30
20710;BME280;10516;51.518;9.864;2023-04-24T02:36:44;97412.63;;;11.75;72.10
20710;BME280;10516;51.518;9.864;2023-04-24T02:39:09;97409.09;;;11.61;72.60
20710;BME280;10516;51.518;9.864;2023-04-24T02:41:34;97415.66;;;11.50;73.30
20710;BME280;10516;51.518;9.864;2023-04-24T02:43:59;97407.03;;;11.53;73.16
20710;BME280;10516;51.518;9.864;2023-04-24T02:46:25;97406.97;;;11.58;73.59
20710;BME280;10516;51.518;9.864;2023-04-24T02:48:50;97411.69;;;11.66;73.31
20710;BME280;10516;51.518;9.864;2023-04-24T02:51:15;97415.72;;;11.64;73.11
20710;BME280;10516;51.518;9.864;2023-04-24T02:53:40;97412.34;;;11.77;72.80
20710;BME280;10516;51.518;9.864;2023-04-24T02:56:06;97403.03;;;11.74;72.66
20710;BME280;10516;51.518;9.864;2023-04-24T02:58:31;97403.59;;;11.71;73.20
20710;BME280;10516;51.518;9.864;2023-04-24T03:00:56;97398.50;;;11.75;72.99
20710;BME280;10516;51.518;9.864;2023-04-24T03:03:21;97399.75;;;11.77;73.28
20710;BME280;10516;51.518;9.864;2023-04-24T03:05:47;97399.56;;;11.74;73.08
20710;BME280;10516;51.518;9.864;2023-04-24T03:08:12;97392.66;;;11.73;73.36
20710;BME280;10516;51.518;9.864;2023-04-24T03:10:37;97385.19;;;11.70;72.79
20710;BME280;10516;51.518;9.864;2023-04-24T03:13:02;97393.97;;;11.52;74.37
20710;BME280;10516;51.518;9.864;2023-04-24T03:15:28;97386.78;;;11.71;73.48
20710;BME280;10516;51.518;9.864;2023-04-24T03:17:53;97382.22;;;11.71;73.71
20710;BME280;10516;51.518;9.864;2023-04-24T03:20:18;97371.38;;;11.63;73.62
20710;BME280;10516;51.518;9.864;2023-04-24T03:22:43;97378.25;;;11.69;73.75
20710;BME280;10516;51.518;9.864;2023-04-24T03:25:09;97380.84;;;11.74;73.46
20710;BME280;10516;51.518;9.864;2023-04-24T03:27:34;97378.75;;;11.71;74.07
20710;BME280;10516;51.518;9.864;2023-04-24T03:30:00;97368.94;;;11.66;74.27
20710;BME280;10516;51.518;9.864;2023-04-24T03:32:25;97368.13;;;11.66;74.18
20710;BME280;10516;51.518;9.864;2023-04-24T03:34:51;97368.78;;;11.76;73.81
20710;BME280;10516;51.518;9.864;2023-04-24T03:37:16;97361.78;;;11.62;74.49
20710;BME280;10516;51.518;9.864;2023-04-24T03:39:42;97360.97;;;11.61;74.42
20710;BME280;10516;51.518;9.864;2023-04-24T03:42:07;97362.66;;;11.57;74.74
20710;BME280;10516;51.518;9.864;2023-04-24T03:44:33;97363.34;;;11.63;74.52
20710;BME280;10516;51.518;9.864;2023-04-24T03:46:58;97370.53;;;11.67;74.12
20710;BME280;10516;51.518;9.864;2023-04-24T03:49:24;97364.22;;;11.58;74.84
20710;BME280;10516;51.518;9.864;2023-04-24T03:51:49;97368.59;;;11.36;75.63
20710;BME280;10516;51.518;9.864;2023-04-24T03:54:15;97363.16;;;11.59;74.20
20710;BME280;10516;51.518;9.864;2023-04-24T03:56:40;97358.88;;;11.58;74.25
20710;BME280;10516;51.518;9.864;2023-04-24T03:59:06;97359.38;;;11.60;74.15
20710;BME280;10516;51.518;9.864;2023-04-24T04:01:31;97356.56;;;11.52;74.33
20710;BME280;10516;51.518;9.864;2023-04-24T04:03:56;97360.22;;;11.42;74.61
20710;BME280;10516;51.518;9.864;2023-04-24T04:06:21;97368.94;;;11.48;74.46
20710;BME280;10516;51.518;9.864;2023-04-24T04:08:47;97372.03;;;11.55;74.35
20710;BME280;10516;51.518;9.864;2023-04-24T04:11:12;97371.25;;;11.54;74.58
20710;BME280;10516;51.518;9.864;2023-04-24T04:13:37;97370.16;;;11.55;74.63
20710;BME280;10516;51.518;9.864;2023-04-24T04:16:02;97366.28;;;11.29;75.43
20710;BME280;10516;51.518;9.864;2023-04-24T04:18:28;97362.56;;;11.25;76.11
20710;BME280;10516;51.518;9.864;2023-04-24T04:20:53;97368.50;;;11.41;75.55
20710;BME280;10516;51.518;9.864;2023-04-24T04:23:18;97377.09;;;11.38;75.21
20710;BME280;10516;51.518;9.864;2023-04-24T04:25:43;97369.22;;;11.46;74.70
20710;BME280;10516;51.518;9.864;2023-04-24T04:28:09;97369.09;;;11.38;75.80
20710;BME280;10516;51.518;9.864;2023-04-24T04:30:34;97379.63;;;11.48;75.14
20710;BME280;10516;51.518;9.864;2023-04-24T04:32:59;97378.69;;;11.57;74.91
20710;BME280;10516;51.518;9.864;2023-04-24T04:35:25;97375.50;;;11.55;74.64
20710;BME280;10516;51.518;9.864;2023-04-24T04:37:50;97368.06;;;11.52;74.99
20710;BME280;10516;51.518;9.864;2023-04-24T04:40:16;97377.09;;;11.56;75.13
20710;BME280;10516;51.518;9.864;2023-04-24T04:42:41;97378.31;;;11.45;75.74
20710;BME280;10516;51.518;9.864;2023-04-24T04:45:07;97373.19;;;11.30;75.90
20710;BME280;10516;51.518;9.864;2023-04-24T04:47:36;97373.63;;;11.37;75.91
20710;BME280;10516;51.518;9.864;2023-04-24T04:50:01;97389.13;;;11.54;75.60
20710;BME280;10516;51.518;9.864;2023-04-24T04:52:28;97394.34;;;11.45;75.75
20710;BME280;10516;51.518;9.864;2023-04-24T04:54:54;97392.53;;;11.41;75.98
20710;BME280;10516;51.518;9.864;2023-04-24T04:57:19;97400.19;;;11.47;75.43
20710;BME280;10516;51.518;9.864;2023-04-24T04:59:45;97383.09;;;11.48;75.38
20710;BME280;10516;51.518;9.864;2023-04-24T05:02:10;97395.44;;;11.44;75.66
20710;BME280;10516;51.518;9.864;2023-04-24T05:04:36;97396.31;;;11.40;75.78
20710;BME280;10516;51.518;9.864;2023-04-24T05:07:01;97404.59;;;11.38;75.76
20710;BME280;10516;51.518;9.864;2023-04-24T05:09:27;97385.88;;;11.38;76.19
20710;BME280;10516;51.518;9.864;2023-04-24T05:11:54;97388.78;;;11.42;76.05
20710;BME280;10516;51.518;9.864;2023-04-24T05:14:20;97399.91;;;11.49;75.11
20710;BME280;10516;51.518;9.864;2023-04-24T05:16:45;97396.09;;;11.55;75.52
20710;BME280;10516;51.518;9.864;2023-04-24T05:19:11;97400.34;;;11.56;75.54
20710;BME280;10516;51.518;9.864;2023-04-24T05:21:37;97400.63;;;11.54;75.15
20710;BME280;10516;51.518;9.864;2023-04-24T05:24:02;97399.03;;;11.53;75.21
20710;BME280;10516;51.518;9.864;2023-04-24T05:26:27;97402.59;;;11.49;75.85
20710;BME280;10516;51.518;9.864;2023-04-24T05:28:52;97401.28;;;11.46;75.62
20710;BME280;10516;51.518;9.864;2023-04-24T05:31:18;97395.28;;;11.54;75.72
20710;BME280;10516;51.518;9.864;2023-04-24T05:33:43;97395.34;;;11.49;75.54
20710;BME280;10516;51.518;9.864;2023-04-24T05:36:08;97399.63;;;11.50;75.71
20710;BME280;10516;51.518;9.864;2023-04-24T05:38:33;97406.91;;;11.63;75.31
20710;BME280;10516;51.518;9.864;2023-04-24T05:40:59;97410.38;;;11.64;75.48
20710;BME280;10516;51.518;9.864;2023-04-24T05:43:24;97416.59;;;11.59;75.54
20710;BME280;10516;51.518;9.864;2023-04-24T05:45:50;97413.31;;;11.62;75.26
20710;BME280;10516;51.518;9.864;2023-04-24T05:48:15;97414.84;;;11.50;75.54
20710;BME280;10516;51.518;9.864;2023-04-24T05:50:40;97424.53;;;11.64;75.19
20710;BME280;10516;51.518;9.864;2023-04-24T05:53:06;97427.16;;;11.51;75.65
20710;BME280;10516;51.518;9.864;2023-04-24T05:55:32;97420.00;;;11.46;75.50
20710;BME280;10516;51.518;9.864;2023-04-24T05:57:57;97418.84;;;11.71;75.08
20710;BME280;10516;51.518;9.864;2023-04-24T06:00:23;97415.44;;;11.65;75.66
20710;BME280;10516;51.518;9.864;2023-04-24T06:02:48;97413.78;;;11.69;75.41
20710;BME280;10516;51.518;9.864;2023-04-24T06:05:14;97427.91;;;11.75;74.68
20710;BME280;10516;51.518;9.864;2023-04-24T06:07:39;97433.25;;;11.75;74.92
20710;BME280;10516;51.518;9.864;2023-04-24T06:10:05;97429.34;;;11.67;75.13
20710;BME280;10516;51.518;9.864;2023-04-24T06:12:31;97429.34;;;11.67;75.02
20710;BME280;10516;51.518;9.864;2023-04-24T06:14:56;97441.56;;;11.50;75.59
20710;BME280;10516;51.518;9.864;2023-04-24T06:17:21;97445.75;;;11.37;76.04
20710;BME280;10516;51.518;9.864;2023-04-24T06:19:46;97440.97;;;11.34;76.42
20710;BME280;10516;51.518;9.864;2023-04-24T06:22:12;97450.66;;;11.30;76.71
20710;BME280;10516;51.518;9.864;2023-04-24T06:24:37;97457.34;;;11.27;76.74
20710;BME280;10516;51.518;9.864;2023-04-24T06:27:03;97463.13;;;11.16;76.33
20710;BME280;10516;51.518;9.864;2023-04-24T06:29:28;97464.88;;;11.25;75.52
20710;BME280;10516;51.518;9.864;2023-04-24T06:31:53;97469.91;;;11.27;74.96
20710;BME280;10516;51.518;9.864;2023-04-24T06:34:18;97467.25;;;11.27;74.69
20710;BME280;10516;51.518;9.864;2023-04-24T06:36:44;97466.13;;;11.33;74.63
20710;BME280;10516;51.518;9.864;2023-04-24T06:39:09;97469.56;;;11.33;73.75
20710;BME280;10516;51.518;9.864;2023-04-24T06:41:35;97475.03;;;11.23;74.51
20710;BME280;10516;51.518;9.864;2023-04-24T06:44:00;97469.09;;;11.50;73.40
20710;BME280;10516;51.518;9.864;2023-04-24T06:46:25;97474.13;;;11.33;73.59
20710;BME280;10516;51.518;9.864;2023-04-24T06:48:52;97476.91;;;11.23;74.74
20710;BME280;10516;51.518;9.864;2023-04-24T06:51:21;97478.28;;;11.20;73.74
20710;BME280;10516;51.518;9.864;2023-04-24T06:53:46;97479.47;;;11.33;73.78
20710;BME280;10516;51.518;9.864;2023-04-24T06:56:11;97484.06;;;11.27;73.30
20710;BME280;10516;51.518;9.864;2023-04-24T06:58:36;97482.34;;;11.37;72.97
20710;BME280;10516;51.518;9.864;2023-04-24T07:01:02;97496.88;;;11.49;72.64
20710;BME280;10516;51.518;9.864;2023-04-24T07:03:27;97491.13;;;11.42;72.32
20710;BME280;10516;51.518;9.864;2023-04-24T07:05:52;97489.16;;;11.29;71.20
20710;BME280;10516;51.518;9.864;2023-04-24T07:08:18;97488.72;;;11.41;71.39
20710;BME280;10516;51.518;9.864;2023-04-24T07:10:45;97474.44;;;11.50;70.95
20710;BME280;10516;51.518;9.864;2023-04-24T07:13:10;97476.50;;;11.53;70.40
20710;BME280;10516;51.518;9.864;2023-04-24T07:15:36;97475.94;;;11.56;70.21
20710;BME280;10516;51.518;9.864;2023-04-24T07:18:01;97480.56;;;11.74;69.10
20710;BME280;10516;51.518;9.864;2023-04-24T07:20:26;97473.53;;;11.78;68.39
20710;BME280;10516;51.518;9.864;2023-04-24T07:22:51;97480.84;;;11.91;68.63
20710;BME280;10516;51.518;9.864;2023-04-24T07:25:18;97488.06;;;12.10;67.99
20710;BME280;10516;51.518;9.864;2023-04-24T07:27:44;97487.75;;;12.11;67.34
20710;BME280;10516;51.518;9.864;2023-04-24T07:30:09;97489.50;;;12.02;67.85
20710;BME280;10516;51.518;9.864;2023-04-24T07:32:35;97490.97;;;11.94;68.24
20710;BME280;10516;51.518;9.864;2023-04-24T07:35:00;97489.91;;;11.90;67.24
20710;BME280;10516;51.518;9.864;2023-04-24T07:37:25;97493.41;;;11.91;67.21
20710;BME280;10516;51.518;9.864;2023-04-24T07:39:51;97484.31;;;11.92;66.89
20710;BME280;10516;51.518;9.864;2023-04-24T07:42:16;97490.66;;;11.96;67.43
20710;BME280;10516;51.518;9.864;2023-04-24T07:44:41;97483.84;;;12.03;66.97
20710;BME280;10516;51.518;9.864;2023-04-24T07:47:07;97486.75;;;12.07;66.95
20710;BME280;10516;51.518;9.864;2023-04-24T07:49:33;97494.78;;;12.07;66.38
20710;BME280;10516;51.518;9.864;2023-04-24T07:51:59;97497.94;;;12.09;66.25
20710;BME280;10516;51.518;9.864;2023-04-24T07:54:26;97503.09;;;12.06;66.56
20710;BME280;10516;51.518;9.864;2023-04-24T07:56:52;97497.81;;;12.00;66.59
20710;BME280;10516;51.518;9.864;2023-04-24T07:59:19;97500.19;;;12.02;66.10
20710;BME280;10516;51.518;9.864;2023-04-24T08:01:44;97512.13;;;12.10;66.57
20710;BME280;10516;51.518;9.864;2023-04-24T08:04:10;97510.78;;;12.26;65.61
20710;BME280;10516;51.518;9.864;2023-04-24T08:06:35;97508.63;;;12.28;65.54
20710;BME280;10516;51.518;9.864;2023-04-24T08:09:01;97519.69;;;12.21;65.44
20710;BME280;10516;51.518;9.864;2023-04-24T08:11:26;97519.31;;;12.28;65.83
20710;BME280;10516;51.518;9.864;2023-04-24T08:13:51;97521.91;;;12.33;65.26
20710;BME280;10516;51.518;9.864;2023-04-24T08:16:17;97523.09;;;12.27;65.16
20710;BME280;10516;51.518;9.864;2023-04-24T08:18:42;97521.66;;;12.16;65.62
20710;BME280;10516;51.518;9.864;2023-04-24T08:21:07;97523.47;;;12.20;65.78
20710;BME280;10516;51.518;9.864;2023-04-24T08:23:33;97529.63;;;12.21;65.36
20710;BME280;10516;51.518;9.864;2023-04-24T08:25:58;97527.44;;;12.23;65.60
20710;BME280;10516;51.518;9.864;2023-04-24T08:28:23;97527.06;;;12.29;65.61
20710;BME280;10516;51.518;9.864;2023-04-24T08:30:49;97528.78;;;12.39;65.03
20710;BME280;10516;51.518;9.864;2023-04-24T08:33:19;97519.59;;;12.45;64.57
20710;BME280;10516;51.518;9.864;2023-04-24T08:35:44;97537.16;;;12.51;64.64
20710;BME280;10516;51.518;9.864;2023-04-24T08:38:10;97543.13;;;12.61;63.21
20710;BME280;10516;51.518;9.864;2023-04-24T08:40:35;97544.72;;;12.62;63.49
20710;BME280;10516;51.518;9.864;2023-04-24T08:43:01;97542.34;;;12.61;62.02
20710;BME280;10516;51.518;9.864;2023-04-24T08:45:28;97534.31;;;12.61;61.52
20710;BME280;10516;51.518;9.864;2023-04-24T08:47:54;97541.94;;;12.67;61.97
20710;BME280;10516;51.518;9.864;2023-04-24T08:50:19;97538.69;;;12.70;61.58
20710;BME280;10516;51.518;9.864;2023-04-24T08:52:45;97551.84;;;12.67;61.83
20710;BME280;10516;51.518;9.864;2023-04-24T08:55:10;97553.16;;;12.69;60.77
20710;BME280;10516;51.518;9.864;2023-04-24T08:57:36;97549.19;;;12.67;60.85
20710;BME280;10516;51.518;9.864;2023-04-24T09:00:03;97549.19;;;12.67;61.34
20710;BME280;10516;51.518;9.864;2023-04-24T09:02:29;97545.84;;;12.75;61.92
20710;BME280;10516;51.518;9.864;2023-04-24T09:04:55;97552.03;;;12.89;61.21
20710;BME280;10516;51.518;9.864;2023-04-24T09:07:22;97563.03;;;12.88;60.97
20710;BME280;10516;51.518;9.864;2023-04-24T09:09:50;97546.97;;;12.88;60.89
20710;BME280;10516;51.518;9.864;2023-04-24T09:12:15;97556.31;;;12.90;60.27
20710;BME280;10516;51.518;9.864;2023-04-24T09:14:41;97562.31;;;12.82;61.05
20710;BME280;10516;51.518;9.864;2023-04-24T09:17:09;97550.59;;;12.78;60.41
20710;BME280;10516;51.518;9.864;2023-04-24T09:19:35;97560.91;;;12.71;60.41
20710;BME280;10516;51.518;9.864;2023-04-24T09:22:00;97563.66;;;12.66;60.67
20710;BME280;10516;51.518;9.864;2023-04-24T09:24:29;97559.38;;;12.65;61.12
20710;BME280;10516;51.518;9.864;2023-04-24T09:26:57;97566.78;;;12.54;60.86
20710;BME280;10516;51.518;9.864;2023-04-24T09:29:23;97557.06;;;12.45;61.33
20710;BME280;10516;51.518;9.864;2023-04-24T09:31:49;97573.25;;;12.53;62.04
20710;BME280;10516;51.518;9.864;2023-04-24T09:34:18;97569.97;;;12.56;61.84
20710;BME280;10516;51.518;9.864;2023-04-24T09:36:45;97566.66;;;12.64;61.85
20710;BME280;10516;51.518;9.864;2023-04-24T09:39:12;97567.97;;;12.48;61.89
20710;BME280;10516;51.518;9.864;2023-04-24T09:41:47;97556.47;;;12.48;62.09
20710;BME280;10516;51.518;9.864;2023-04-24T09:44:17;97566.34;;;12.34;62.04
20710;BME280;10516;51.518;9.864;2023-04-24T09:46:43;97557.94;;;12.40;62.33
20710;BME280;10516;51.518;9.864;2023-04-24T09:49:21;97556.59;;;12.56;62.25
20710;BME280;10516;51.518;9.864;2023-04-24T09:51:46;97556.03;;;12.41;62.85
20710;BME280;10516;51.518;9.864;2023-04-24T09:54:15;97554.81;;;12.33;62.77
20710;BME280;10516;51.518;9.864;2023-04-24T09:56:45;97543.69;;;12.45;62.41
20710;BME280;10516;51.518;9.864;2023-04-24T09:59:10;97549.09;;;12.40;62.81
20710;BME280;10516;51.518;9.864;2023-04-24T10:01:36;97545.13;;;12.37;62.28
20710;BME280;10516;51.518;9.864;2023-04-24T10:04:03;97547.94;;;12.46;62.74
20710;BME280;10516;51.518;9.864;2023-04-24T10:06:35;97548.41;;;12.66;61.90
20710;BME280;10516;51.518;9.864;2023-04-24T10:09:01;97549.22;;;12.80;60.77
20710;BME280;10516;51.518;9.864;2023-04-24T10:11:26;97549.84;;;12.91;60.64
20710;BME280;10516;51.518;9.864;2023-04-24T10:13:52;97547.38;;;12.95;60.03
20710;BME280;10516;51.518;9.864;2023-04-24T10:16:17;97549.16;;;12.86;60.52
20710;BME280;10516;51.518;9.864;2023-04-24T10:18:43;97552.13;;;12.84;60.15
20710;BME280;10516;51.518;9.864;2023-04-24T10:21:08;97546.78;;;12.84;59.68
20710;BME280;10516;51.518;9.864;2023-04-24T10:23:34;97536.56;;;13.00;59.13
20710;BME280;10516;51.518;9.864;2023-04-24T10:26:00;97547.44;;;13.08;60.08
20710;BME280;10516;51.518;9.864;2023-04-24T10:28:26;97551.81;;;13.18;59.35
20710;BME280;10516;51.518;9.864;2023-04-24T10:30:52;97556.28;;;13.22;59.89
20710;BME280;10516;51.518;9.864;2023-04-24T10:33:19;97554.59;;;13.26;60.22
20710;BME280;10516;51.518;9.864;2023-04-24T10:35:46;97555.38;;;13.27;60.58
20710;BME280;10516;51.518;9.864;2023-04-24T10:38:14;97538.03;;;13.38;61.12
20710;BME280;10516;51.518;9.864;2023-04-24T10:40:41;97548.34;;;13.44;61.20
20710;BME280;10516;51.518;9.864;2023-04-24T10:43:07;97535.44;;;13.46;61.20
20710;BME280;10516;51.518;9.864;2023-04-24T10:45:35;97547.72;;;13.61;60.15
20710;BME280;10516;51.518;9.864;2023-04-24T10:48:04;97540.66;;;13.65;59.44
20710;BME280;10516;51.518;9.864;2023-04-24T10:53:07;97545.44;;;13.82;58.77
20710;BME280;10516;51.518;9.864;2023-04-24T10:58:08;97545.50;;;13.90;58.75
20710;BME280;10516;51.518;9.864;2023-04-24T11:00:36;97571.75;;;13.80;58.92
20710;BME280;10516;51.518;9.864;2023-04-24T11:03:01;97565.41;;;13.76;59.22
20710;BME280;10516;51.518;9.864;2023-04-24T11:08:14;97572.16;;;13.73;60.39
20710;BME280;10516;51.518;9.864;2023-04-24T11:10:43;97570.16;;;13.79;60.52
20710;BME280;10516;51.518;9.864;2023-04-24T11:13:09;97564.78;;;13.79;60.41
20710;BME280;10516;51.518;9.864;2023-04-24T11:15:34;97556.34;;;13.85;60.29
20710;BME280;10516;51.518;9.864;2023-04-24T11:17:59;97563.38;;;13.95;60.24
20710;BME280;10516;51.518;9.864;2023-04-24T11:20:25;97561.59;;;13.90;60.19
20710;BME280;10516;51.518;9.864;2023-04-24T11:22:52;97565.16;;;14.13;59.70
20710;BME280;10516;51.518;9.864;2023-04-24T11:25:17;97565.56;;;14.28;59.89
20710;BME280;10516;51.518;9.864;2023-04-24T11:27:43;97585.28;;;14.24;60.22
20710;BME280;10516;51.518;9.864;2023-04-24T11:30:10;97585.75;;;13.90;61.57
20710;BME280;10516;51.518;9.864;2023-04-24T11:32:36;97603.34;;;13.69;62.44
20710;BME280;10516;51.518;9.864;2023-04-24T11:37:40;97602.44;;;13.01;67.26
20710;BME280;10516;51.518;9.864;2023-04-24T11:40:06;97595.84;;;12.79;68.22
20710;BME280;10516;51.518;9.864;2023-04-24T11:42:36;97597.50;;;12.25;71.03
20710;BME280;10516;51.518;9.864;2023-04-24T11:45:02;97603.94;;;12.42;73.30
20710;BME280;10516;51.518;9.864;2023-04-24T11:47:33;97605.50;;;12.62;73.40
20710;BME280;10516;51.518;9.864;2023-04-24T11:49:59;97591.25;;;12.80;73.90
20710;BME280;10516;51.518;9.864;2023-04-24T11:52:24;97607.50;;;12.70;74.93
20710;BME280;10516;51.518;9.864;2023-04-24T11:54:50;97610.31;;;12.78;74.40
20710;BME280;10516;51.518;9.864;2023-04-24T11:57:15;97617.41;;;12.69;73.94
20710;BME280;10516;51.518;9.864;2023-04-24T11:59:40;97616.59;;;12.88;73.61
20710;BME280;10516;51.518;9.864;2023-04-24T12:02:06;97612.03;;;12.88;73.21
20710;BME280;10516;51.518;9.864;2023-04-24T12:04:38;97611.63;;;12.81;73.58
20710;BME280;10516;51.518;9.864;2023-04-24T12:07:03;97612.78;;;12.75;73.28
20710;BME280;10516;51.518;9.864;2023-04-24T12:09:43;97626.44;;;12.73;72.78
20710;BME280;10516;51.518;9.864;2023-04-24T12:12:08;97619.38;;;12.64;71.84
20710;BME280;10516;51.518;9.864;2023-04-24T12:14:50;97628.44;;;12.68;71.15
20710;BME280;10516;51.518;9.864;2023-04-24T12:17:17;97635.50;;;12.77;69.39
20710;BME280;10516;51.518;9.864;2023-04-24T12:19:46;97633.47;;;12.69;67.99
20710;BME280;10516;51.518;9.864;2023-04-24T12:22:12;97653.31;;;12.68;68.26
20710;BME280;10516;51.518;9.864;2023-04-24T12:24:55;97652.72;;;12.71;67.53
20710;BME280;10516;51.518;9.864;2023-04-24T12:27:21;97654.47;;;12.62;67.27
20710;BME280;10516;51.518;9.864;2023-04-24T12:29:56;97661.13;;;12.65;66.88
20710;BME280;10516;51.518;9.864;2023-04-24T12:32:22;97669.25;;;12.60;66.60
20710;BME280;10516;51.518;9.864;2023-04-24T12:34:49;97692.16;;;12.29;66.46
20710;BME280;10516;51.518;9.864;2023-04-24T12:37:14;97674.63;;;12.18;66.03
20710;BME280;10516;51.518;9.864;2023-04-24T12:39:42;97680.47;;;12.20;66.37
20710;BME280;10516;51.518;9.864;2023-04-24T12:42:09;97694.53;;;12.30;65.55
20710;BME280;10516;51.518;9.864;2023-04-24T12:44:34;97699.66;;;12.45;65.32
20710;BME280;10516;51.518;9.864;2023-04-24T12:47:01;97703.72;;;12.43;65.02
20710;BME280;10516;51.518;9.864;2023-04-24T12:49:26;97704.66;;;12.33;65.28
20710;BME280;10516;51.518;9.864;2023-04-24T12:51:52;97708.06;;;12.39;64.83
20710;BME280;10516;51.518;9.864;2023-04-24T12:54:17;97718.69;;;12.44;64.60
20710;BME280;10516;51.518;9.864;2023-04-24T12:56:43;97715.56;;;12.37;65.32
20710;BME280;10516;51.518;9.864;2023-04-24T12:59:08;97713.34;;;12.44;65.28
20710;BME280;10516;51.518;9.864;2023-04-24T13:01:33;97733.34;;;12.28;65.89
20710;BME280;10516;51.518;9.864;2023-04-24T13:03:59;97718.84;;;12.10;65.66